Time;durP1;ratioP1;P1;durP2;ratioP2;P2;SDS_P1;SDS_P2;PMS_P1;PMS_P2;Temp;Humidity;BMP_temperature;BMP_pressure;BME280_temperature;BME280_humidity;BME280_pressure;Samples;Min_cycle;Max_cycle;Signal;HPM_P1;HPM_P2
2022/06/23 00:00:45;;;;;;;2.72;2.63;;;;;;;16.40;75.68;101070.25;5016929;28;20045;-81
2022/06/23 00:03:18;;;;;;;2.72;2.53;;;;;;;16.40;75.51;101070.25;5016071;28;20021;-81
2022/06/23 00:05:48;;;;;;;3.10;2.67;;;;;;;16.40;75.97;101072.88;5016661;28;20036;-81
2022/06/23 00:08:15;;;;;;;2.97;2.78;;;;;;;16.39;76.13;101071.19;5033371;28;20108;-81
2022/06/23 00:10:46;;;;;;;3.28;3.08;;;;;;;16.37;75.90;101067.72;5016448;28;20033;-81
2022/06/23 00:13:19;;;;;;;3.53;3.17;;;;;;;16.38;76.45;101067.66;5016890;28;20090;-81
2022/06/23 00:15:45;;;;;;;3.97;3.08;;;;;;;16.39;76.41;101069.38;5016448;28;20463;-81
2022/06/23 00:18:34;;;;;;;3.33;3.03;;;;;;;16.39;76.10;101079.09;5032886;28;20032;-81
2022/06/23 00:21:10;;;;;;;3.50;3.20;;;;;;;16.38;76.50;101080.84;5016455;28;20224;-81
2022/06/23 00:23:39;;;;;;;3.35;2.95;;;;;;;16.36;76.25;101080.03;5016153;28;20021;-81
2022/06/23 00:26:32;;;;;;;3.10;2.90;;;;;;;16.35;76.55;101080.09;5016539;28;20048;-81
2022/06/23 00:29:01;;;;;;;3.40;2.97;;;;;;;16.33;76.40;101079.28;5028386;28;20033;-81
2022/06/23 00:31:37;;;;;;;3.05;2.85;;;;;;;16.31;76.38;101074.06;5016156;28;20224;-81
2022/06/23 00:34:22;;;;;;;3.10;2.90;;;;;;;16.29;76.69;101080.28;5015849;28;20474;-81
2022/06/23 00:37:03;;;;;;;;;;;;;;;16.27;75.96;101074.22;5016400;28;20057;-81
2022/06/23 00:39:41;;;;;;;2.85;2.65;;;;;;;16.22;76.47;101071.72;5032335;28;19909;-81
2022/06/23 00:42:28;;;;;;;3.33;3.13;;;;;;;16.19;76.19;101077.13;5015993;28;20120;-81
2022/06/23 00:45:11;;;;;;;3.05;2.85;;;;;;;16.16;76.23;101087.78;5032696;28;20026;-81
2022/06/23 00:47:40;;;;;;;3.20;3.00;;;;;;;16.13;76.65;101082.56;5032808;28;20061;-81
2022/06/23 00:50:22;;;;;;;3.55;3.25;;;;;;;16.08;76.60;101079.25;5015927;28;20075;-81
2022/06/23 00:53:13;;;;;;;3.28;2.80;;;;;;;16.04;77.18;101079.34;5032092;28;20048;-81
2022/06/23 00:56:07;;;;;;;3.35;3.05;;;;;;;16.00;76.63;101077.72;5032579;28;20021;-81
2022/06/23 00:58:34;;;;;;;3.22;3.00;;;;;;;15.99;77.25;101086.56;5032490;28;20029;-81
2022/06/23 01:01:13;;;;;;;3.55;3.25;;;;;;;15.95;76.47;101084.06;5016215;28;20075;-80
2022/06/23 01:03:46;;;;;;;3.55;3.25;;;;;;;15.91;77.09;101085.94;5032476;28;20029;-80
2022/06/23 01:06:38;;;;;;;3.88;3.45;;;;;;;15.88;76.76;101078.13;5016090;28;20025;-80
2022/06/23 01:09:28;;;;;;;2.83;2.72;;;;;;;15.84;76.94;101089.66;5019337;28;20221;-80
2022/06/23 01:12:29;;;;;;;3.80;3.35;;;;;;;15.79;76.89;101089.78;5032517;28;20025;-81
2022/06/23 01:15:02;;;;;;;3.70;3.40;;;;;;;15.76;76.83;101086.38;5014028;28;20042;-81
2022/06/23 01:17:43;;;;;;;3.50;3.28;;;;;;;15.72;77.23;101089.13;5015124;28;20034;-80
2022/06/23 01:20:16;;;;;;;3.30;3.10;;;;;;;15.69;77.57;101078.69;5031324;28;20056;-80
2022/06/23 01:22:51;;;;;;;3.85;3.55;;;;;;;15.66;77.09;101075.28;5014687;28;20036;-81
2022/06/23 01:25:19;;;;;;;;;;;;;;;15.65;77.01;101079.69;5031540;28;20032;-81
2022/06/23 01:28:03;;;;;;;4.07;3.78;;;;;;;15.63;77.64;101083.28;5031277;28;19988;-81
2022/06/23 01:30:54;;;;;;;3.80;3.55;;;;;;;15.59;76.92;101077.25;5031016;28;20036;-81
2022/06/23 01:33:37;;;;;;;3.88;3.58;;;;;;;15.57;77.21;101073.81;5017912;28;20029;-81
2022/06/23 01:36:17;;;;;;;4.00;3.70;;;;;;;15.55;77.26;101075.63;5014594;28;20034;-81
2022/06/23 01:38:46;;;;;;;3.45;3.20;;;;;;;15.53;77.79;101082.72;5031010;28;20025;-81
2022/06/23 01:41:17;;;;;;;3.80;3.50;;;;;;;15.49;77.80;101083.72;5031190;28;20021;-81
2022/06/23 01:43:59;;;;;;;3.90;3.60;;;;;;;15.46;77.29;101076.78;5032608;28;20382;-81
2022/06/23 01:46:30;;;;;;;4.43;3.78;;;;;;;15.45;77.69;101089.97;5019143;28;20406;-81
2022/06/23 01:48:58;;;;;;;3.97;3.72;;;;;;;15.43;77.70;101091.78;5018447;28;20025;-81
2022/06/23 01:51:45;;;;;;;3.83;3.53;;;;;;;15.40;77.97;101091.88;5035706;28;20026;-80
2022/06/23 01:54:12;;;;;;;4.15;3.88;;;;;;;15.39;77.72;101085.75;5018302;28;20594;-81
2022/06/23 01:57:08;;;;;;;4.00;3.80;;;;;;;15.37;77.44;101087.56;5018318;28;20033;-81
2022/06/23 01:59:45;;;;;;;4.03;3.72;;;;;;;15.35;77.38;101089.38;5034815;28;20029;-81
2022/06/23 02:02:11;;;;;;;4.40;4.10;;;;;;;15.33;77.83;101097.31;5034502;28;20076;-81
2022/06/23 02:04:58;;;;;;;4.80;4.45;;;;;;;15.32;78.09;101090.31;5034586;28;20021;-81
2022/06/23 02:07:38;;;;;;;4.13;3.75;;;;;;;15.28;77.96;101080.78;5017823;28;20029;-80
2022/06/23 02:10:18;;;;;;;4.40;3.75;;;;;;;15.27;78.08;101089.63;5035542;28;20022;-80
2022/06/23 02:13:02;;;;;;;3.97;3.67;;;;;;;15.24;78.31;101094.09;5017825;28;20410;-80
2022/06/23 02:15:51;;;;;;;4.80;4.15;;;;;;;15.22;78.80;101099.41;5033387;28;20060;-80
2022/06/23 02:18:25;;;;;;;4.35;3.78;;;;;;;15.21;78.43;101102.94;5034089;28;20507;-80
2022/06/23 02:20:52;;;;;;;4.45;4.13;;;;;;;15.19;78.10;101099.50;5017707;28;20032;-80
2022/06/23 02:23:41;;;;;;;5.30;4.30;;;;;;;15.17;77.84;101106.56;5034022;28;20025;-81
2022/06/23 02:26:22;;;;;;;4.47;4.18;;;;;;;15.15;78.42;101103.13;5034222;28;20442;-81
2022/06/23 02:29:13;;;;;;;4.75;4.40;;;;;;;15.14;78.37;101104.03;5017405;28;20068;-81
2022/06/23 02:31:49;;;;;;;4.32;4.05;;;;;;;15.12;78.36;101113.72;5020884;28;20486;-81
2022/06/23 02:34:20;;;;;;;4.68;4.38;;;;;;;15.11;78.24;101112.88;5017775;28;20060;-81
2022/06/23 02:36:55;;;;;;;6.63;4.75;;;;;;;15.09;78.51;101108.56;5017559;28;20514;-81
2022/06/23 02:39:44;;;;;;;4.35;4.07;;;;;;;15.08;78.51;101112.09;5033728;28;20055;-81
2022/06/23 02:42:35;;;;;;;4.60;4.30;;;;;;;15.06;78.61;101108.66;5033202;28;20486;-81
2022/06/23 02:45:03;;;;;;;4.63;4.18;;;;;;;15.04;78.72;101117.44;5021883;28;20551;-81
2022/06/23 02:47:34;;;;;;;4.45;4.15;;;;;;;15.03;78.91;101117.50;5033682;28;20548;-80
2022/06/23 02:50:00;;;;;;;4.85;4.53;;;;;;;15.02;78.58;101115.75;5033680;28;20065;-80
2022/06/23 02:52:39;;;;;;;4.65;4.35;;;;;;;15.00;79.19;101117.59;5034838;28;20057;-80
2022/06/23 02:55:37;;;;;;;5.03;4.28;;;;;;;14.98;78.73;101112.38;5033723;28;20029;-80
2022/06/23 02:58:14;;;;;;;4.82;4.50;;;;;;;14.96;78.65;101106.28;5017040;28;20535;-80
2022/06/23 03:01:04;;;;;;;5.07;4.78;;;;;;;14.96;78.93;101110.69;5017052;28;20021;-80
2022/06/23 03:03:51;;;;;;;5.15;4.60;;;;;;;14.94;79.02;101113.34;5033396;28;20052;-80
2022/06/23 03:06:28;;;;;;;5.07;4.78;;;;;;;14.93;79.13;101103.75;5016573;28;20044;-80
2022/06/23 03:08:53;;;;;;;5.30;4.90;;;;;;;14.93;79.44;101109.00;5033204;28;20462;-80
2022/06/23 03:14:23;;;;;;;5.25;4.80;;;;;;;14.91;79.66;101116.06;5034327;28;20438;-80
2022/06/23 03:16:52;;;;;;;4.78;4.47;;;;;;;14.91;80.00;101126.56;5034240;28;20112;-80
2022/06/23 03:19:26;;;;;;;5.03;4.63;;;;;;;14.91;79.83;101131.84;5016203;28;20112;-80
2022/06/23 03:21:59;;;;;;;4.82;4.53;;;;;;;14.90;79.96;101127.47;5016565;28;20021;-80
2022/06/23 03:24:26;;;;;;;5.18;4.78;;;;;;;14.91;79.61;101137.09;5016623;28;20479;-80
2022/06/23 03:27:01;;;;;;;4.93;4.53;;;;;;;14.90;79.51;101129.25;5016432;28;20049;-80
2022/06/23 03:29:35;;;;;;;5.35;4.85;;;;;;;14.89;79.65;101120.50;5016337;28;20033;-80
2022/06/23 03:32:06;;;;;;;5.28;4.82;;;;;;;14.89;79.72;101123.16;5016823;28;20025;-80
2022/06/23 03:34:36;;;;;;;4.65;4.35;;;;;;;14.88;79.93;101113.53;5032902;28;20269;-80
2022/06/23 03:37:06;;;;;;;5.22;4.93;;;;;;;14.87;80.18;101117.03;5032844;28;20090;-80
2022/06/23 03:42:26;;;;;;;5.03;4.63;;;;;;;14.86;79.96;101115.31;5033562;28;20414;-81
2022/06/23 03:45:07;;;;;;;5.40;5.10;;;;;;;14.85;80.43;101116.25;5032708;28;20029;-81
2022/06/23 03:47:58;;;;;;;5.55;5.18;;;;;;;14.84;80.46;101120.63;5032508;28;20128;-80
2022/06/23 03:50:34;;;;;;;5.78;5.28;;;;;;;14.84;80.28;101118.00;5020734;28;20129;-80
2022/06/23 03:53:03;;;;;;;5.65;5.35;;;;;;;14.85;80.61;101122.34;5015855;28;20079;-80
2022/06/23 03:55:39;;;;;;;6.30;5.68;;;;;;;14.86;80.92;101120.56;5015904;28;20033;-80
2022/06/23 03:58:19;;;;;;;6.22;5.72;;;;;;;14.86;80.88;101110.94;5032129;28;20379;-80
2022/06/23 04:01:07;;;;;;;6.18;5.68;;;;;;;14.86;80.98;101107.41;5015920;28;20551;-80
2022/06/23 04:03:43;;;;;;;6.40;5.85;;;;;;;14.87;80.76;101104.78;5015790;28;20443;-80
2022/06/23 04:06:37;;;;;;;6.68;6.18;;;;;;;14.88;81.07;101109.09;5031889;28;20487;-80
2022/06/23 04:09:32;;;;;;;7.38;6.78;;;;;;;14.91;81.28;101112.56;5016446;28;20053;-79
2022/06/23 04:12:29;;;;;;;6.80;6.30;;;;;;;14.92;81.49;101112.53;5016353;28;20029;-79
2022/06/23 04:14:59;;;;;;;7.55;6.95;;;;;;;14.94;81.73;101112.47;5013265;28;20502;-79
2022/06/23 04:17:28;;;;;;;7.25;6.75;;;;;;;14.95;81.50;101112.44;5016393;28;20116;-79
2022/06/23 04:20:15;;;;;;;5.72;5.40;;;;;;;14.94;81.75;101115.13;5038139;23;20038;-85
2022/06/23 04:22:44;;;;;;;6.00;5.60;;;;;;;14.94;81.85;101115.97;5031545;28;20022;-85
2022/06/23 04:25:17;;;;;;;6.43;5.93;;;;;;;14.95;81.81;101117.69;5015423;28;20025;-85
2022/06/23 04:27:55;;;;;;;6.57;6.10;;;;;;;14.95;81.96;101122.97;5015427;28;20028;-85
2022/06/23 04:30:41;;;;;;;6.13;5.70;;;;;;;14.97;82.24;101126.41;5015380;28;20564;-85
2022/06/23 04:33:15;;;;;;;6.38;5.88;;;;;;;14.97;82.01;101126.41;5015177;28;20397;-86
2022/06/23 04:35:41;;;;;;;7.33;6.57;;;;;;;15.01;82.40;101133.31;5015411;28;20087;-85
2022/06/23 04:38:11;;;;;;;6.25;5.85;;;;;;;15.04;82.61;101127.97;5015082;28;20033;-85
2022/06/23 04:40:43;;;;;;;6.70;6.05;;;;;;;15.07;82.52;101137.53;5031852;28;20372;-85
2022/06/23 04:43:14;;;;;;;5.63;5.25;;;;;;;15.08;82.39;101131.38;5032975;28;20036;-82
2022/06/23 04:45:51;;;;;;;5.57;5.18;;;;;;;15.12;82.38;101137.41;5033217;28;20482;-82
2022/06/23 04:48:35;;;;;;;6.18;5.63;;;;;;;15.13;82.29;101133.88;5016677;28;20025;-83
2022/06/23 04:51:23;;;;;;;7.10;6.50;;;;;;;15.17;82.72;101140.78;5016591;28;20394;-82
2022/06/23 04:53:56;;;;;;;6.72;6.13;;;;;;;15.18;82.39;101139.88;5033362;28;20021;-82
2022/06/23 04:56:31;;;;;;;5.85;5.40;;;;;;;15.20;82.33;101138.94;5016844;28;20021;-82
2022/06/23 04:59:05;;;;;;;6.65;5.72;;;;;;;15.22;82.14;101144.16;5033483;28;20083;-83
2022/06/23 05:01:42;;;;;;;6.37;5.77;;;;;;;15.25;82.44;101136.16;5016412;28;20061;-82
2022/06/23 05:04:17;;;;;;;5.90;5.50;;;;;;;15.28;82.16;101141.31;5016494;28;20029;-83
2022/06/23 05:06:45;;;;;;;5.68;5.15;;;;;;;15.31;82.43;101146.53;5016457;28;20021;-83
2022/06/23 05:09:21;;;;;;;6.57;6.07;;;;;;;15.33;82.57;101149.09;5016217;28;20033;-82
2022/06/23 05:11:56;;;;;;;5.13;4.72;;;;;;;15.35;82.52;101153.41;5016389;28;20064;-82
2022/06/23 05:14:30;;;;;;;5.63;5.22;;;;;;;15.36;82.51;101154.28;5032973;28;20112;-82
2022/06/23 05:17:12;;;;;;;6.03;5.53;;;;;;;15.38;82.14;101153.31;5016221;28;20032;-83
2022/06/23 05:19:39;;;;;;;5.63;5.22;;;;;;;15.42;81.81;101158.50;5018990;28;20060;-82
2022/06/23 05:22:32;;;;;;;5.60;5.25;;;;;;;15.44;82.17;101156.69;5020110;28;20022;-83
2022/06/23 05:25:12;;;;;;;5.53;5.03;;;;;;;15.47;82.17;101156.59;5017892;28;20498;-83
2022/06/23 05:27:38;;;;;;;8.85;5.18;;;;;;;15.49;81.31;101165.31;5020067;28;20053;-82
2022/06/23 05:30:25;;;;;;;5.22;4.70;;;;;;;15.51;81.77;101159.06;5019769;28;20025;-82
2022/06/23 05:32:59;;;;;;;4.82;4.47;;;;;;;15.55;81.70;101165.13;5037315;28;20026;-83
2022/06/23 05:35:38;;;;;;;5.97;5.30;;;;;;;15.59;81.57;101161.50;5019949;28;20022;-82
2022/06/23 05:38:20;;;;;;;4.80;4.43;;;;;;;15.63;81.56;101157.88;5019796;28;20037;-82
2022/06/23 05:41:12;;;;;;;5.32;4.60;;;;;;;15.67;81.55;101162.13;5019394;28;20028;-82
2022/06/23 05:43:40;;;;;;;7.75;4.88;;;;;;;15.71;80.94;101160.28;5017864;28;20033;-83
2022/06/23 05:46:07;;;;;;;5.30;4.93;;;;;;;15.76;80.55;101165.38;5019639;28;20021;-83
2022/06/23 05:48:36;;;;;;;5.50;4.88;;;;;;;15.79;80.55;101160.91;5019298;28;20072;-83
2022/06/23 05:51:07;;;;;;;5.75;5.22;;;;;;;15.83;79.95;101154.66;5019069;28;20120;-83
2022/06/23 05:53:42;;;;;;;5.97;5.13;;;;;;;15.85;80.25;101158.09;5019091;28;20110;-83
2022/06/23 05:56:24;;;;;;;5.38;4.88;;;;;;;15.88;79.88;101158.03;5019365;28;20368;-82
2022/06/23 05:58:54;;;;;;;4.80;4.50;;;;;;;15.92;80.18;101161.41;5018697;28;20029;-83
2022/06/23 06:01:25;;;;;;;6.05;5.60;;;;;;;15.93;79.96;101160.50;5035609;28;20471;-82
2022/06/23 06:04:04;;;;;;;5.70;5.30;;;;;;;15.96;79.52;101157.75;5019133;28;20045;-83
2022/06/23 06:06:31;;;;;;;5.18;4.68;;;;;;;16.00;79.72;101151.50;5019263;28;20032;-83
2022/06/23 06:11:51;;;;;;;7.10;5.20;;;;;;;16.05;79.39;101154.00;5035738;28;20035;-83
2022/06/23 06:14:18;;;;;;;4.95;4.65;;;;;;;16.10;79.45;101156.47;5018717;28;20172;-83
2022/06/23 06:16:44;;;;;;;5.40;4.93;;;;;;;16.12;79.57;101147.59;5018540;28;20154;-83
2022/06/23 06:19:13;;;;;;;4.90;4.55;;;;;;;16.15;79.62;101139.59;5018279;28;20042;-83
2022/06/23 06:21:39;;;;;;;6.03;5.63;;;;;;;16.17;79.35;101142.19;5017817;28;20395;-84
2022/06/23 06:24:20;;;;;;;7.82;5.20;;;;;;;16.20;79.47;101142.09;5017839;28;20025;-83
2022/06/23 06:26:47;;;;;;;5.75;5.00;;;;;;;16.22;79.32;101145.53;5034717;28;20026;-83
2022/06/23 06:29:14;;;;;;;5.78;4.57;;;;;;;16.25;79.42;101142.78;5020988;28;20021;-83
2022/06/23 06:31:47;;;;;;;5.50;5.10;;;;;;;16.29;78.60;101140.94;5047185;28;20132;-84
2022/06/23 06:34:35;;;;;;;7.85;5.65;;;;;;;16.33;79.15;101138.16;5030774;28;20093;-84
2022/06/23 06:37:00;;;;;;;5.50;5.20;;;;;;;16.37;78.94;101139.78;5029030;28;20087;-83
2022/06/23 06:39:30;;;;;;;5.32;4.85;;;;;;;16.43;78.64;101145.72;5046759;28;20026;-84
2022/06/23 06:42:11;;;;;;;4.90;4.57;;;;;;;16.45;79.38;101146.56;5027899;28;20032;-83
2022/06/23 06:44:41;;;;;;;9.07;6.35;;;;;;;16.51;78.25;101146.34;5045984;28;20025;-84
2022/06/23 06:47:13;;;;;;;6.55;5.88;;;;;;;16.54;78.41;101140.97;5024480;28;20025;-83
2022/06/23 06:49:38;;;;;;;7.03;6.47;;;;;;;16.57;78.72;101143.50;5021021;28;20033;-84
2022/06/23 06:52:04;;;;;;;7.13;6.63;;;;;;;16.60;77.85;101146.03;5028098;28;20026;-83
2022/06/23 06:54:46;;;;;;;6.03;5.63;;;;;;;16.63;78.30;101140.63;5025406;28;20083;-83
2022/06/23 06:57:18;;;;;;;5.68;5.32;;;;;;;16.66;78.40;101140.56;5025202;28;20017;-83
2022/06/23 06:59:47;;;;;;;5.90;5.43;;;;;;;16.70;78.86;101141.28;5026005;28;20479;-83
2022/06/23 07:02:22;;;;;;;7.95;5.97;;;;;;;16.73;77.85;101142.06;5026684;28;20021;-84
2022/06/23 07:05:04;;;;;;;6.05;5.57;;;;;;;16.75;78.06;101127.97;5027820;28;20022;-83
2022/06/23 07:07:40;;;;;;;5.57;5.07;;;;;;;16.81;78.49;101138.28;5025319;28;20032;-84
2022/06/23 07:10:11;;;;;;;6.25;5.90;;;;;;;16.85;78.28;101146.06;5026719;28;20494;-84
2022/06/23 07:12:43;;;;;;;6.53;5.40;;;;;;;16.90;78.24;101141.47;5023540;28;20025;-85
2022/06/23 07:15:28;;;;;;;7.05;6.43;;;;;;;16.95;77.52;101138.69;5025856;28;20028;-84
2022/06/23 07:18:04;;;;;;;6.90;6.35;;;;;;;17.00;77.86;101142.03;5043415;28;20021;-84
2022/06/23 07:20:42;;;;;;;7.53;6.90;;;;;;;17.04;76.68;101145.41;5025774;28;20033;-84
2022/06/23 07:23:18;;;;;;;6.82;6.22;;;;;;;17.10;77.13;101141.69;5026290;28;20026;-83
2022/06/23 07:25:49;;;;;;;8.13;5.75;;;;;;;17.14;76.89;101135.38;5026810;28;20034;-84
2022/06/23 07:28:48;;;;;;;5.50;5.10;;;;;;;17.19;77.38;101144.88;5028100;28;20460;-84
2022/06/23 07:31:18;;;;;;;7.07;6.47;;;;;;;17.26;76.14;101142.88;5024389;28;20037;-83
2022/06/23 07:33:57;;;;;;;6.95;6.35;;;;;;;17.33;76.17;101149.63;5019038;28;20022;-83
2022/06/23 07:36:34;;;;;;;7.05;6.45;;;;;;;17.38;74.94;101146.81;5026814;28;20705;-84
2022/06/23 07:39:10;;;;;;;6.50;5.70;;;;;;;17.43;75.28;101144.00;5027017;28;20135;-84
2022/06/23 07:41:58;;;;;;;6.68;6.15;;;;;;;17.50;75.86;101148.13;5027551;28;20164;-84
2022/06/23 07:44:33;;;;;;;8.50;5.95;;;;;;;17.55;76.15;101151.47;5044504;28;20029;-84
2022/06/23 07:46:58;;;;;;;6.55;6.07;;;;;;;17.60;74.54;101149.53;5027513;28;20030;-84
2022/06/23 07:49:25;;;;;;;8.18;5.68;;;;;;;17.65;75.12;101157.25;5027542;28;20029;-84
2022/06/23 07:51:51;;;;;;;6.00;5.45;;;;;;;17.69;75.69;101149.13;5028870;28;20053;-83
2022/06/23 07:54:19;;;;;;;5.80;5.40;;;;;;;17.72;75.75;101149.03;5027411;28;20021;-83
2022/06/23 07:56:45;;;;;;;7.00;6.40;;;;;;;17.78;74.67;101152.34;5027338;28;20548;-84
2022/06/23 07:59:13;;;;;;;5.30;4.90;;;;;;;17.82;74.44;101152.19;5020022;28;20025;-83
2022/06/23 08:02:03;;;;;;;6.00;5.35;;;;;;;17.86;75.11;101144.97;5034807;28;20017;-82
2022/06/23 08:05:05;;;;;;;6.95;6.25;;;;;;;17.93;74.37;101140.34;5035355;28;20483;-83
2022/06/23 08:07:31;;;;;;;6.18;5.60;;;;;;;18.00;74.19;101147.13;5034850;28;20029;-83
2022/06/23 08:10:00;;;;;;;6.97;6.25;;;;;;;18.10;73.76;101142.31;5034927;28;20116;-83
2022/06/23 08:12:58;;;;;;;6.10;5.55;;;;;;;18.16;73.47;101144.69;5034889;28;20534;-84
2022/06/23 08:18:35;;;;;;;6.45;5.80;;;;;;;18.28;73.50;101144.19;5033205;28;20079;-83
2022/06/23 08:21:05;;;;;;;6.35;5.80;;;;;;;18.33;73.33;101144.88;5035381;28;20022;-83
2022/06/23 08:23:34;;;;;;;7.57;6.72;;;;;;;18.42;71.72;101143.63;5018819;28;20021;-81
2022/06/23 08:26:00;;;;;;;6.95;6.45;;;;;;;18.51;72.01;101142.38;5018209;28;20029;-82
2022/06/23 08:28:26;;;;;;;7.53;6.57;;;;;;;18.59;71.13;101134.97;5018299;28;20037;-82
2022/06/23 08:30:51;;;;;;;6.55;5.95;;;;;;;18.64;70.66;101133.00;5017803;28;20076;-83
2022/06/23 08:33:17;;;;;;;5.38;4.97;;;;;;;18.69;72.21;101130.13;5014009;28;20032;-82
2022/06/23 08:35:44;;;;;;;6.00;5.55;;;;;;;18.74;71.15;101134.31;5018731;28;20482;-82
2022/06/23 08:38:23;;;;;;;5.88;5.47;;;;;;;18.80;71.69;101127.03;5017943;28;20064;-83
2022/06/23 08:41:06;;;;;;;6.35;5.75;;;;;;;18.84;71.41;101133.91;5010688;28;20022;-83
2022/06/23 08:43:50;;;;;;;5.63;5.10;;;;;;;18.87;71.15;101123.19;5012987;28;20068;-81
2022/06/23 08:46:23;;;;;;;6.28;5.72;;;;;;;18.91;70.97;101114.22;5013709;28;20022;-83
2022/06/23 08:48:48;;;;;;;6.43;6.03;;;;;;;18.94;70.54;101121.16;5031985;28;20120;-81
2022/06/23 08:51:28;;;;;;;6.55;5.90;;;;;;;18.98;70.65;101120.97;5033668;28;20073;-82
2022/06/23 08:53:59;;;;;;;5.93;5.35;;;;;;;19.03;71.19;101113.69;5022366;28;20452;-82
2022/06/23 08:57:00;;;;;;;7.60;5.28;;;;;;;19.11;71.06;101112.47;5014672;28;20040;-82
2022/06/23 09:00:12;;;;;;;6.13;5.72;;;;;;;19.18;70.35;101116.53;4965319;28;20044;-82
2022/06/23 09:02:59;;;;;;;6.45;5.47;;;;;;;19.27;70.12;101110.84;5009137;28;20033;-81
2022/06/23 09:05:36;;;;;;;5.60;5.10;;;;;;;19.34;70.00;101117.56;5014494;28;20036;-82
2022/06/23 09:08:08;;;;;;;5.80;5.30;;;;;;;19.43;70.27;101122.44;5023720;28;20034;-82
2022/06/23 09:10:42;;;;;;;5.95;5.45;;;;;;;19.49;69.59;101115.97;5033178;28;20028;-82
2022/06/23 09:13:39;;;;;;;5.90;5.40;;;;;;;19.56;69.28;101116.56;5033883;28;20509;-83
2022/06/23 09:16:36;;;;;;;6.63;6.03;;;;;;;19.62;68.77;101118.94;5034649;28;20474;-83
2022/06/23 09:19:20;;;;;;;5.07;4.75;;;;;;;19.66;68.67;101109.91;5033318;28;20046;-83
2022/06/23 09:22:23;;;;;;;9.02;5.45;;;;;;;19.75;68.07;101111.25;5033784;28;20021;-81
2022/06/23 09:25:12;;;;;;;6.55;5.72;;;;;;;19.83;68.43;101108.25;5034832;28;20025;-81
2022/06/23 09:28:03;;;;;;;5.53;5.00;;;;;;;19.90;68.33;101099.06;5033808;28;20067;-82
2022/06/23 09:30:47;;;;;;;5.43;4.93;;;;;;;19.97;68.31;101108.44;5033640;28;20522;-82
2022/06/23 09:33:41;;;;;;;6.38;5.35;;;;;;;20.00;68.51;101095.03;5032035;28;20026;-82
2022/06/23 09:36:44;;;;;;;4.90;4.60;;;;;;;20.10;68.87;101093.63;5032533;28;20037;-82
2022/06/23 09:39:36;;;;;;;5.95;5.05;;;;;;;20.26;66.12;101095.53;5032608;28;20030;-82
2022/06/23 09:42:32;;;;;;;5.80;4.90;;;;;;;20.40;64.20;101093.03;5028630;28;20491;-83
2022/06/23 09:45:22;;;;;;;4.63;4.20;;;;;;;20.51;63.98;101088.97;5030318;28;20511;-82
2022/06/23 09:48:13;;;;;;;4.88;4.32;;;;;;;20.60;63.49;101088.47;5030094;28;20518;-83
2022/06/23 09:50:57;;;;;;;6.53;5.15;;;;;;;20.66;61.73;101088.16;5030048;28;20033;-83
2022/06/23 09:53:53;;;;;;;5.10;4.17;;;;;;;20.75;62.64;101098.34;5032650;28;20124;-82
2022/06/23 09:56:33;;;;;;;6.25;4.07;;;;;;;20.86;63.08;101086.28;5033416;28;20100;-83
2022/06/23 09:59:02;;;;;;;4.30;3.90;;;;;;;20.97;62.29;101091.88;5032245;28;20033;-82
2022/06/23 10:01:55;;;;;;;3.70;3.40;;;;;;;21.11;59.32;101093.78;5032470;28;20033;-82
2022/06/23 10:04:30;;;;;;;4.57;3.78;;;;;;;21.23;56.74;101090.47;5033133;28;20022;-82
2022/06/23 10:07:13;;;;;;;3.97;3.67;;;;;;;21.30;57.87;101083.03;5023136;28;20036;-83
2022/06/23 10:10:06;;;;;;;4.40;3.22;;;;;;;21.34;58.22;101079.25;5036308;28;20100;-82
2022/06/23 10:12:41;;;;;;;5.15;3.75;;;;;;;21.42;58.46;101076.19;5035939;28;20549;-83
2022/06/23 10:15:25;;;;;;;;;;;;;;;21.52;56.92;101071.19;5036980;28;20352;-82
2022/06/23 10:18:00;;;;;;;5.18;3.63;;;;;;;21.63;57.43;101070.63;5036199;28;19962;-82
2022/06/23 10:20:41;;;;;;;3.72;3.42;;;;;;;21.72;56.38;101056.78;5054587;22;20506;-85
2022/06/23 10:23:16;;;;;;;3.88;3.50;;;;;;;21.78;55.96;101057.28;5061465;28;20029;-84
2022/06/23 10:25:47;;;;;;;3.75;3.17;;;;;;;21.81;55.96;101055.41;5054041;28;20029;-84
2022/06/23 10:28:28;;;;;;;3.45;3.15;;;;;;;21.87;57.76;101055.03;5048760;28;20033;-85
2022/06/23 10:31:14;;;;;;;3.78;3.47;;;;;;;21.95;57.68;101060.75;5033192;28;20033;-85
2022/06/23 10:33:52;;;;;;;4.15;3.40;;;;;;;22.03;58.07;101052.34;5012953;28;20041;-84
2022/06/23 10:36:27;;;;;;;3.47;3.17;;;;;;;22.06;55.81;101045.06;5024978;28;20064;-85
2022/06/23 10:39:08;;;;;;;3.08;2.80;;;;;;;22.14;53.54;101043.72;5033129;28;20394;-85
2022/06/23 10:42:08;;;;;;;4.22;3.45;;;;;;;22.22;53.25;101049.47;5033520;28;20088;-85
2022/06/23 10:44:56;;;;;;;3.17;3.03;;;;;;;22.29;54.16;101034.81;5033265;28;20026;-85
2022/06/23 10:47:46;;;;;;;3.20;2.92;;;;;;;22.39;55.10;101040.50;5014311;28;20041;-85
2022/06/23 10:50:53;;;;;;;4.75;3.20;;;;;;;22.49;55.64;101032.81;5033195;28;20018;-85
2022/06/23 10:53:55;;;;;;;2.90;2.70;;;;;;;22.57;53.53;101022.56;5032878;28;20411;-85
2022/06/23 10:57:04;;;;;;;7.50;3.53;;;;;;;22.68;52.84;101019.22;5033145;28;20048;-85
2022/06/23 10:59:40;;;;;;;3.10;2.90;;;;;;;22.78;53.42;101021.22;5032956;28;20021;-85
2022/06/23 11:02:23;;;;;;;5.13;3.28;;;;;;;22.85;50.81;101021.69;5033101;28;20097;-85
2022/06/23 11:05:28;;;;;;;3.05;2.85;;;;;;;22.95;52.28;101019.31;5032890;28;20127;-85
2022/06/23 11:08:03;;;;;;;3.42;3.05;;;;;;;23.07;53.22;101015.84;5025556;28;20033;-85
2022/06/23 11:11:07;;;;;;;3.40;3.20;;;;;;;23.15;51.33;101007.41;5032843;28;20029;-85
2022/06/23 11:13:44;;;;;;;3.05;2.85;;;;;;;23.20;50.66;101010.63;5010479;28;20060;-85
2022/06/23 11:16:15;;;;;;;2.95;2.75;;;;;;;23.26;50.63;101010.22;5034292;28;20483;-85
2022/06/23 11:19:15;;;;;;;3.67;2.92;;;;;;;23.34;51.06;101015.06;5032703;28;20029;-85
2022/06/23 11:21:57;;;;;;;3.47;3.08;;;;;;;23.39;48.54;101012.94;5033293;28;20433;-85
2022/06/23 11:24:41;;;;;;;2.53;2.33;;;;;;;23.49;51.17;101020.34;5032401;28;20028;-85
2022/06/23 11:27:26;;;;;;;3.08;2.88;;;;;;;23.55;48.44;101009.28;5032651;28;20022;-86
2022/06/23 11:29:58;;;;;;;5.18;3.10;;;;;;;23.59;49.24;101006.31;5032536;28;20021;-85
2022/06/23 11:32:41;;;;;;;3.13;2.83;;;;;;;23.69;51.33;101006.53;5032291;28;20142;-86
2022/06/23 11:35:31;;;;;;;3.33;3.13;;;;;;;23.77;49.66;101004.22;5032182;28;20029;-85
2022/06/23 11:38:18;;;;;;;3.15;2.80;;;;;;;23.85;48.28;101000.19;5032300;28;20517;-84
2022/06/23 11:40:55;;;;;;;3.55;3.25;;;;;;;23.88;46.56;100994.66;5032173;28;20045;-85
2022/06/23 11:44:02;;;;;;;3.58;3.33;;;;;;;23.92;49.47;100994.34;5026926;28;20553;-85
2022/06/23 11:46:34;;;;;;;3.45;2.78;;;;;;;24.05;49.09;100999.72;5026700;28;20041;-84
2022/06/23 11:49:24;;;;;;;3.85;2.60;;;;;;;24.13;48.60;100989.38;5012386;28;20029;-84
2022/06/23 11:52:35;;;;;;;3.88;3.03;;;;;;;24.21;47.01;100985.31;5021422;28;20117;-85
2022/06/23 11:55:25;;;;;;;2.72;2.53;;;;;;;24.31;45.85;100981.06;5028761;28;20022;-84
2022/06/23 11:57:51;;;;;;;2.78;2.58;;;;;;;24.40;44.88;100972.38;5012423;28;20471;-83
2022/06/23 12:00:19;;;;;;;2.90;2.70;;;;;;;24.54;46.45;100976.78;5028723;28;20026;-84
2022/06/23 12:02:54;;;;;;;2.67;2.47;;;;;;;24.69;46.15;100964.19;5012465;28;20099;-83
2022/06/23 12:05:45;;;;;;;4.53;2.67;;;;;;;24.83;45.72;100959.63;5028756;28;20022;-83
2022/06/23 12:08:24;;;;;;;3.10;2.20;;;;;;;24.94;43.60;100957.91;5027916;28;20038;-83
2022/06/23 12:10:49;;;;;;;2.95;2.22;;;;;;;25.12;45.53;100950.34;5028540;28;20116;-84
2022/06/23 12:13:16;;;;;;;2.40;2.30;;;;;;;25.23;44.85;100967.44;5012285;28;20105;-83
2022/06/23 12:15:45;;;;;;;2.83;2.15;;;;;;;25.31;42.69;100955.19;5012271;28;20017;-83
2022/06/23 12:18:22;;;;;;;2.20;2.10;;;;;;;25.50;44.26;100947.63;5012019;28;20096;-83
2022/06/23 12:21:00;;;;;;;7.78;2.30;;;;;;;25.66;44.17;100948.22;5012026;28;20369;-84
2022/06/23 12:23:46;;;;;;;2.55;2.20;;;;;;;25.84;45.70;100947.75;5028149;28;20506;-84
2022/06/23 12:26:42;;;;;;;4.78;2.22;;;;;;;25.90;42.16;100940.09;5011929;28;20029;-84
2022/06/23 12:29:18;;;;;;;2.20;2.10;;;;;;;26.01;42.38;100939.25;5028010;28;20030;-84
2022/06/23 12:32:08;;;;;;;2.33;2.15;;;;;;;26.20;42.09;100940.53;5011487;28;20475;-84